Crescent City, FL

11:09 AM EST en Noviembre 24, 2014 (GMT -0500)
Beulah Church Rd,Fruitland | Change Station
CLOSE
Current Station
Estación meteorológica personal
Location: Crescent City, FL
Altura: 45 ft
Estaciones meteorológicas cercanas

Alt 45 ft 29.44 °N, 81.63 °W | Updated 8 seconds ago

Nublado
Nublado
79.9 ° F
Sensación térmica 84 ° F
N
2.9
Viento Variable Viento desde SO
Gusts 6.0 mph

Hoy
Alta -- | Baja -- ° F
--% Posibilidad de precipitaciones
Ayer
Alta -- | Baja -- ° F
Precip. -- pul
6:57 AM 5:27 PM
Creciente, 6% visible
Presión 29.97 pul
Visibilidad 7.0 Millas
Nubes Nubes dispersas 2000 ft
Índice de calor 84 ° F
Punto de rocío 74 ° F
Humedad 81%
Precipitaciones 0.00 pul
Espesor de la nieve No disponible.
UV 4 de una escala de 12
Polen 2.80 de una escala de 12
Calidad del aire No disponible.
Flu Activity No disponible.
METAR KOMN 241550Z 23010G17KT 7SM SCT020 27/22 A2997

More Conditions Fewer Conditions

Presión 29.97 pul
Visibilidad 7.0 Millas
Nubes Nubes dispersas 2000 ft
Índice de calor 84 ° F
Punto de rocío 74 ° F
Humedad 81%
Precipitaciones 0.00 pul
Espesor de la nieve No disponible.
UV 4 de una escala de 12
Polen 2.80 de una escala de 12
Calidad del aire No disponible.
Flu Activity No disponible.
METAR KOMN 241550Z 23010G17KT 7SM SCT020 27/22 A2997

More Conditions Fewer Conditions

10-Day Weather Forecast

Almanac

Astronomía

Nov. 24, 2014 Salida Puesta
Hora real
Crepúsculo civil
Crepúsculo náutico
Crepúsculo astronómico
Luna
Horas de luz
Horas de luz
Tomorrow will be .
, % of the Moon is Illuminated

Extremos de hoy

Máximos del estado Bajos del estado

Community

WunderPhotos

Upload Photos

1,773,364 ¡fotos cargadas!

WunderBlogs® & News

Nearby

Calidad del aire

  Calidad del aire Índice AQ Contaminante
Not available.

Grosos de nieve

Estación Profundido Altura

Actividad de terremotos

Ciudad Distance Mag. Tiempo y dato
Magnitud mínima muestra es 2,5.

Temperaturas de aguas costeras

Lugar Temperatura

Estaciones meteorológicas cercanas